sensor_id;sensor_type;location;lat;lon;timestamp;pressure;altitude;pressure_sealevel;temperature;humidity
4410;BME280;2218;51.408;7.208;2023-06-14T00:01:55;99599.63;;;25.95;34.80
4410;BME280;2218;51.408;7.208;2023-06-14T00:04:22;99597.97;;;25.94;35.00
4410;BME280;2218;51.408;7.208;2023-06-14T00:06:52;99603.28;;;25.94;34.91
4410;BME280;2218;51.408;7.208;2023-06-14T00:09:19;99606.94;;;25.93;34.89
4410;BME280;2218;51.408;7.208;2023-06-14T00:11:46;99600.78;;;25.93;34.69
4410;BME280;2218;51.408;7.208;2023-06-14T00:14:13;99606.94;;;25.93;34.73
4410;BME280;2218;51.408;7.208;2023-06-14T00:16:40;99606.94;;;25.93;34.56
4410;BME280;2218;51.408;7.208;2023-06-14T00:19:08;99612.28;;;25.93;34.80
4410;BME280;2218;51.408;7.208;2023-06-14T00:21:36;99616.09;;;25.91;34.59
4410;BME280;2218;51.408;7.208;2023-06-14T00:24:05;99620.41;;;25.92;34.73
4410;BME280;2218;51.408;7.208;2023-06-14T00:26:32;99620.53;;;25.90;34.81
4410;BME280;2218;51.408;7.208;2023-06-14T00:28:59;99627.69;;;25.90;34.90
4410;BME280;2218;51.408;7.208;2023-06-14T00:31:26;99621.53;;;25.89;35.01
4410;BME280;2218;51.408;7.208;2023-06-14T00:33:54;99623.38;;;25.89;34.68
4410;BME280;2218;51.408;7.208;2023-06-14T00:36:20;99625.19;;;25.88;34.93
4410;BME280;2218;51.408;7.208;2023-06-14T00:38:47;99622.53;;;25.88;35.04
4410;BME280;2218;51.408;7.208;2023-06-14T00:41:16;99622.53;;;25.88;35.09
4410;BME280;2218;51.408;7.208;2023-06-14T00:43:43;99627.03;;;25.88;34.88
4410;BME280;2218;51.408;7.208;2023-06-14T00:46:10;99625.50;;;25.85;34.96
4410;BME280;2218;51.408;7.208;2023-06-14T00:48:38;99625.50;;;25.85;34.96
4410;BME280;2218;51.408;7.208;2023-06-14T00:51:06;99625.50;;;25.85;35.28
4410;BME280;2218;51.408;7.208;2023-06-14T00:53:34;99632.50;;;25.86;35.14
4410;BME280;2218;51.408;7.208;2023-06-14T00:56:02;99631.66;;;25.86;34.93
4410;BME280;2218;51.408;7.208;2023-06-14T00:58:32;99629.97;;;25.85;35.04
4410;BME280;2218;51.408;7.208;2023-06-14T01:00:59;99638.13;;;25.83;35.42
4410;BME280;2218;51.408;7.208;2023-06-14T01:03:26;99628.31;;;25.84;35.14
4410;BME280;2218;51.408;7.208;2023-06-14T01:06:05;99632.81;;;25.83;35.17
4410;BME280;2218;51.408;7.208;2023-06-14T01:08:49;99636.47;;;25.82;35.12
4410;BME280;2218;51.408;7.208;2023-06-14T01:11:26;99630.31;;;25.82;35.21
4410;BME280;2218;51.408;7.208;2023-06-14T01:13:58;99630.44;;;25.80;35.22
4410;BME280;2218;51.408;7.208;2023-06-14T01:16:27;99631.44;;;25.79;34.98
4410;BME280;2218;51.408;7.208;2023-06-14T01:18:56;99639.25;;;25.81;35.27
4410;BME280;2218;51.408;7.208;2023-06-14T01:21:25;99631.44;;;25.79;35.15
4410;BME280;2218;51.408;7.208;2023-06-14T01:23:55;99631.44;;;25.79;35.40
4410;BME280;2218;51.408;7.208;2023-06-14T01:26:23;99633.41;;;25.77;35.25
4410;BME280;2218;51.408;7.208;2023-06-14T01:28:53;99642.06;;;25.79;35.50
4410;BME280;2218;51.408;7.208;2023-06-14T01:31:25;99635.91;;;25.78;35.39
4410;BME280;2218;51.408;7.208;2023-06-14T01:33:53;99639.56;;;25.77;35.33
4410;BME280;2218;51.408;7.208;2023-06-14T01:36:26;99635.09;;;25.78;35.42
4410;BME280;2218;51.408;7.208;2023-06-14T01:38:59;99638.75;;;25.77;35.85
4410;BME280;2218;51.408;7.208;2023-06-14T01:41:27;99637.91;;;25.76;35.23
4410;BME280;2218;51.408;7.208;2023-06-14T01:43:56;99637.06;;;25.76;35.67
4410;BME280;2218;51.408;7.208;2023-06-14T01:46:25;99639.72;;;25.76;35.34
4410;BME280;2218;51.408;7.208;2023-06-14T01:48:54;99633.66;;;25.74;35.64
4410;BME280;2218;51.408;7.208;2023-06-14T01:51:21;99637.31;;;25.73;35.62
4410;BME280;2218;51.408;7.208;2023-06-14T01:53:48;99635.50;;;25.73;35.43
4410;BME280;2218;51.408;7.208;2023-06-14T01:56:16;99637.31;;;25.73;35.42
4410;BME280;2218;51.408;7.208;2023-06-14T01:58:44;99630.34;;;25.72;35.48
4410;BME280;2218;51.408;7.208;2023-06-14T02:01:11;99628.66;;;25.71;35.41
4410;BME280;2218;51.408;7.208;2023-06-14T02:03:38;99626.97;;;25.70;35.57
4410;BME280;2218;51.408;7.208;2023-06-14T02:06:05;99628.66;;;25.71;35.72
4410;BME280;2218;51.408;7.208;2023-06-14T02:08:32;99638.44;;;25.70;35.68
4410;BME280;2218;51.408;7.208;2023-06-14T02:11:00;99639.31;;;25.71;35.42
4410;BME280;2218;51.408;7.208;2023-06-14T02:13:28;99631.44;;;25.69;35.77
4410;BME280;2218;51.408;7.208;2023-06-14T02:15:55;99638.75;;;25.67;35.76
4410;BME280;2218;51.408;7.208;2023-06-14T02:18:23;99634.28;;;25.68;35.43
4410;BME280;2218;51.408;7.208;2023-06-14T02:20:50;99636.94;;;25.68;35.80
4410;BME280;2218;51.408;7.208;2023-06-14T02:23:17;99639.59;;;25.68;35.99
4410;BME280;2218;51.408;7.208;2023-06-14T02:25:44;99637.94;;;25.67;35.43
4410;BME280;2218;51.408;7.208;2023-06-14T02:28:12;99646.88;;;25.66;35.74
4410;BME280;2218;51.408;7.208;2023-06-14T02:30:40;99643.38;;;25.65;35.95
4410;BME280;2218;51.408;7.208;2023-06-14T02:33:07;99643.53;;;25.64;35.80
4410;BME280;2218;51.408;7.208;2023-06-14T02:35:39;99633.72;;;25.64;35.77
4410;BME280;2218;51.408;7.208;2023-06-14T02:38:06;99640.88;;;25.64;35.89
4410;BME280;2218;51.408;7.208;2023-06-14T02:40:33;99645.53;;;25.62;35.81
4410;BME280;2218;51.408;7.208;2023-06-14T02:43:00;99647.19;;;25.63;35.87
4410;BME280;2218;51.408;7.208;2023-06-14T02:45:27;99650.84;;;25.62;35.95
4410;BME280;2218;51.408;7.208;2023-06-14T02:47:55;99649.16;;;25.61;35.98
4410;BME280;2218;51.408;7.208;2023-06-14T02:50:22;99648.31;;;25.60;36.03
4410;BME280;2218;51.408;7.208;2023-06-14T02:52:49;99646.50;;;25.61;36.12
4410;BME280;2218;51.408;7.208;2023-06-14T02:55:18;99646.50;;;25.61;35.90
4410;BME280;2218;51.408;7.208;2023-06-14T02:57:46;99648.31;;;25.60;35.98
4410;BME280;2218;51.408;7.208;2023-06-14T03:00:14;99651.97;;;25.59;36.16
4410;BME280;2218;51.408;7.208;2023-06-14T03:02:43;99654.78;;;25.58;35.99
4410;BME280;2218;51.408;7.208;2023-06-14T03:05:12;99659.13;;;25.59;36.26
4410;BME280;2218;51.408;7.208;2023-06-14T03:07:40;99661.78;;;25.59;36.00
4410;BME280;2218;51.408;7.208;2023-06-14T03:10:11;99664.59;;;25.57;36.10
4410;BME280;2218;51.408;7.208;2023-06-14T03:12:40;99669.09;;;25.57;36.10
4410;BME280;2218;51.408;7.208;2023-06-14T03:15:09;99669.09;;;25.57;35.96
4410;BME280;2218;51.408;7.208;2023-06-14T03:17:40;99666.44;;;25.57;36.09
4410;BME280;2218;51.408;7.208;2023-06-14T03:20:13;99667.38;;;25.56;36.14
4410;BME280;2218;51.408;7.208;2023-06-14T03:22:41;99666.44;;;25.57;35.95
4410;BME280;2218;51.408;7.208;2023-06-14T03:25:11;99667.38;;;25.56;35.92
4410;BME280;2218;51.408;7.208;2023-06-14T03:27:39;99671.03;;;25.55;36.02
4410;BME280;2218;51.408;7.208;2023-06-14T03:30:08;99673.03;;;25.52;36.05
4410;BME280;2218;51.408;7.208;2023-06-14T03:32:35;99681.84;;;25.53;36.09
4410;BME280;2218;51.408;7.208;2023-06-14T03:35:04;99682.84;;;25.52;36.16
4410;BME280;2218;51.408;7.208;2023-06-14T03:37:33;99682.00;;;25.51;36.22
4410;BME280;2218;51.408;7.208;2023-06-14T03:40:00;99693.47;;;25.52;36.10
4410;BME280;2218;51.408;7.208;2023-06-14T03:42:33;99690.94;;;25.50;36.11
4410;BME280;2218;51.408;7.208;2023-06-14T03:45:00;99699.78;;;25.51;36.08
4410;BME280;2218;51.408;7.208;2023-06-14T03:47:27;99698.91;;;25.50;36.41
4410;BME280;2218;51.408;7.208;2023-06-14T03:49:55;99701.59;;;25.50;36.09
4410;BME280;2218;51.408;7.208;2023-06-14T03:52:22;99705.22;;;25.49;36.21
4410;BME280;2218;51.408;7.208;2023-06-14T03:54:50;99704.41;;;25.49;36.25
4410;BME280;2218;51.408;7.208;2023-06-14T03:57:18;99703.56;;;25.48;36.28
4410;BME280;2218;51.408;7.208;2023-06-14T03:59:48;99708.88;;;25.48;36.36
4410;BME280;2218;51.408;7.208;2023-06-14T04:02:15;99719.53;;;25.48;36.32
4410;BME280;2218;51.408;7.208;2023-06-14T04:04:44;99723.19;;;25.47;36.02
4410;BME280;2218;51.408;7.208;2023-06-14T04:07:11;99722.34;;;25.47;36.40
4410;BME280;2218;51.408;7.208;2023-06-14T04:09:39;99727.66;;;25.47;36.04
4410;BME280;2218;51.408;7.208;2023-06-14T04:12:09;99730.44;;;25.45;36.20
4410;BME280;2218;51.408;7.208;2023-06-14T04:14:37;99739.16;;;25.47;36.18
4410;BME280;2218;51.408;7.208;2023-06-14T04:17:05;99732.84;;;25.48;35.92
4410;BME280;2218;51.408;7.208;2023-06-14T04:19:32;99731.28;;;25.46;36.25
4410;BME280;2218;51.408;7.208;2023-06-14T04:22:00;99733.94;;;25.46;36.13
4410;BME280;2218;51.408;7.208;2023-06-14T04:24:29;99737.75;;;25.43;36.19
4410;BME280;2218;51.408;7.208;2023-06-14T04:26:58;99740.41;;;25.43;36.07
4410;BME280;2218;51.408;7.208;2023-06-14T04:29:29;99748.41;;;25.43;36.32
4410;BME280;2218;51.408;7.208;2023-06-14T04:32:01;99743.06;;;25.43;36.39
4410;BME280;2218;51.408;7.208;2023-06-14T04:34:29;99746.72;;;25.42;36.31
4410;BME280;2218;51.408;7.208;2023-06-14T04:36:58;99750.38;;;25.41;36.38
4410;BME280;2218;51.408;7.208;2023-06-14T04:39:36;99750.38;;;25.41;36.57
4410;BME280;2218;51.408;7.208;2023-06-14T04:42:04;99751.34;;;25.40;36.46
4410;BME280;2218;51.408;7.208;2023-06-14T04:44:35;99748.69;;;25.40;36.47
4410;BME280;2218;51.408;7.208;2023-06-14T04:47:04;99755.00;;;25.39;36.60
4410;BME280;2218;51.408;7.208;2023-06-14T04:49:32;99759.31;;;25.40;36.41
4410;BME280;2218;51.408;7.208;2023-06-14T04:52:00;99754.00;;;25.40;36.41
4410;BME280;2218;51.408;7.208;2023-06-14T04:54:47;99758.47;;;25.40;36.70
4410;BME280;2218;51.408;7.208;2023-06-14T04:57:19;99764.63;;;25.40;36.52
4410;BME280;2218;51.408;7.208;2023-06-14T04:59:50;99764.63;;;25.40;36.53
4410;BME280;2218;51.408;7.208;2023-06-14T05:02:22;99775.28;;;25.40;36.56
4410;BME280;2218;51.408;7.208;2023-06-14T05:04:50;99768.84;;;25.43;36.54
4410;BME280;2218;51.408;7.208;2023-06-14T05:07:18;99767.03;;;25.43;36.55
4410;BME280;2218;51.408;7.208;2023-06-14T05:09:46;99763.53;;;25.43;36.55
4410;BME280;2218;51.408;7.208;2023-06-14T05:12:13;99766.03;;;25.44;36.59
4410;BME280;2218;51.408;7.208;2023-06-14T05:14:44;99765.03;;;25.45;36.56
4410;BME280;2218;51.408;7.208;2023-06-14T05:17:12;99781.72;;;25.47;36.52
4410;BME280;2218;51.408;7.208;2023-06-14T05:19:40;99770.25;;;25.47;36.58
4410;BME280;2218;51.408;7.208;2023-06-14T05:22:06;99778.06;;;25.48;36.62
4410;BME280;2218;51.408;7.208;2023-06-14T05:24:33;99778.91;;;25.49;36.69
4410;BME280;2218;51.408;7.208;2023-06-14T05:27:01;99777.06;;;25.49;36.46
4410;BME280;2218;51.408;7.208;2023-06-14T05:29:28;99779.63;;;25.51;36.68
4410;BME280;2218;51.408;7.208;2023-06-14T05:31:54;99778.63;;;25.52;36.66
4410;BME280;2218;51.408;7.208;2023-06-14T05:34:23;99781.13;;;25.53;36.60
4410;BME280;2218;51.408;7.208;2023-06-14T05:36:50;99780.13;;;25.55;36.58
4410;BME280;2218;51.408;7.208;2023-06-14T05:39:17;99776.50;;;25.56;36.51
4410;BME280;2218;51.408;7.208;2023-06-14T05:41:43;99782.53;;;25.58;36.68
4410;BME280;2218;51.408;7.208;2023-06-14T05:44:10;99779.72;;;25.59;36.66
4410;BME280;2218;51.408;7.208;2023-06-14T05:46:37;99783.22;;;25.60;36.57
4410;BME280;2218;51.408;7.208;2023-06-14T05:49:05;99788.41;;;25.61;36.50
4410;BME280;2218;51.408;7.208;2023-06-14T05:51:35;99782.09;;;25.62;36.65
4410;BME280;2218;51.408;7.208;2023-06-14T05:54:02;99785.59;;;25.63;36.35
4410;BME280;2218;51.408;7.208;2023-06-14T05:56:29;99792.59;;;25.64;36.55
4410;BME280;2218;51.408;7.208;2023-06-14T05:58:56;99796.78;;;25.66;36.70
4410;BME280;2218;51.408;7.208;2023-06-14T06:01:23;99797.63;;;25.67;36.41
4410;BME280;2218;51.408;7.208;2023-06-14T06:03:51;99796.63;;;25.68;36.61
4410;BME280;2218;51.408;7.208;2023-06-14T06:06:17;99800.97;;;25.69;36.41
4410;BME280;2218;51.408;7.208;2023-06-14T06:08:46;99802.63;;;25.70;36.36
4410;BME280;2218;51.408;7.208;2023-06-14T06:11:14;99798.16;;;25.70;36.55
4410;BME280;2218;51.408;7.208;2023-06-14T06:13:41;99798.03;;;25.72;36.50
4410;BME280;2218;51.408;7.208;2023-06-14T06:16:08;99796.19;;;25.72;36.57
4410;BME280;2218;51.408;7.208;2023-06-14T06:18:35;99798.72;;;25.74;36.64
4410;BME280;2218;51.408;7.208;2023-06-14T06:21:03;99795.09;;;25.75;36.27
4410;BME280;2218;51.408;7.208;2023-06-14T06:23:30;99805.72;;;25.75;36.12
4410;BME280;2218;51.408;7.208;2023-06-14T06:25:58;99797.63;;;25.76;36.58
4410;BME280;2218;51.408;7.208;2023-06-14T06:28:25;99808.94;;;25.78;36.42
4410;BME280;2218;51.408;7.208;2023-06-14T06:30:52;99808.13;;;25.78;36.43
4410;BME280;2218;51.408;7.208;2023-06-14T06:33:20;99812.44;;;25.79;36.58
4410;BME280;2218;51.408;7.208;2023-06-14T06:35:47;99814.13;;;25.80;36.42
4410;BME280;2218;51.408;7.208;2023-06-14T06:38:14;99818.47;;;25.81;36.38
4410;BME280;2218;51.408;7.208;2023-06-14T06:40:41;99814.84;;;25.82;36.46
4410;BME280;2218;51.408;7.208;2023-06-14T06:43:09;99825.47;;;25.82;36.59
4410;BME280;2218;51.408;7.208;2023-06-14T06:45:43;99825.31;;;25.84;36.48
4410;BME280;2218;51.408;7.208;2023-06-14T06:48:10;99829.81;;;25.83;36.62
4410;BME280;2218;51.408;7.208;2023-06-14T06:50:38;99827.84;;;25.85;36.50
4410;BME280;2218;51.408;7.208;2023-06-14T06:53:05;99838.81;;;25.63;35.28
4410;BME280;2218;51.408;7.208;2023-06-14T06:55:32;99839.44;;;24.98;34.71
4410;BME280;2218;51.408;7.208;2023-06-14T06:57:59;99837.44;;;24.52;34.73
4410;BME280;2218;51.408;7.208;2023-06-14T07:00:28;99840.00;;;24.73;34.51
4410;BME280;2218;51.408;7.208;2023-06-14T07:02:55;99841.66;;;24.74;33.96
4410;BME280;2218;51.408;7.208;2023-06-14T07:05:23;99837.59;;;24.70;33.77
4410;BME280;2218;51.408;7.208;2023-06-14T07:07:50;99839.66;;;24.37;34.21
4410;BME280;2218;51.408;7.208;2023-06-14T07:10:16;99840.56;;;24.77;33.57
4410;BME280;2218;51.408;7.208;2023-06-14T07:12:44;99848.94;;;24.72;33.98
4410;BME280;2218;51.408;7.208;2023-06-14T07:15:11;99836.78;;;24.89;33.79
4410;BME280;2218;51.408;7.208;2023-06-14T07:17:40;99846.41;;;24.70;33.63
4410;BME280;2218;51.408;7.208;2023-06-14T07:20:09;99850.91;;;24.89;33.36
4410;BME280;2218;51.408;7.208;2023-06-14T07:22:39;99846.16;;;25.02;33.23
4410;BME280;2218;51.408;7.208;2023-06-14T07:25:08;99846.94;;;24.55;33.69
4410;BME280;2218;51.408;7.208;2023-06-14T07:27:37;99842.78;;;24.62;33.77
4410;BME280;2218;51.408;7.208;2023-06-14T07:30:07;99848.38;;;24.78;33.37
4410;BME280;2218;51.408;7.208;2023-06-14T07:32:34;99852.56;;;24.90;33.13
4410;BME280;2218;51.408;7.208;2023-06-14T07:35:03;99850.66;;;25.12;33.03
4410;BME280;2218;51.408;7.208;2023-06-14T07:37:30;99842.53;;;25.23;32.90
4410;BME280;2218;51.408;7.208;2023-06-14T07:39:57;99846.41;;;24.80;33.33
4410;BME280;2218;51.408;7.208;2023-06-14T07:42:24;99849.22;;;24.69;33.58
4410;BME280;2218;51.408;7.208;2023-06-14T07:44:51;99852.97;;;24.66;33.71
4410;BME280;2218;51.408;7.208;2023-06-14T07:47:19;99855.22;;;24.71;33.61
4410;BME280;2218;51.408;7.208;2023-06-14T07:49:46;99858.59;;;24.23;33.74
4410;BME280;2218;51.408;7.208;2023-06-14T07:52:14;99852.72;;;24.29;33.74
4410;BME280;2218;51.408;7.208;2023-06-14T07:54:41;99865.72;;;24.72;33.44
4410;BME280;2218;51.408;7.208;2023-06-14T07:57:08;99859.59;;;24.82;33.32
4410;BME280;2218;51.408;7.208;2023-06-14T07:59:35;99847.75;;;24.36;33.86
4410;BME280;2218;51.408;7.208;2023-06-14T08:02:03;99862.72;;;24.46;34.23
4410;BME280;2218;51.408;7.208;2023-06-14T08:04:31;99856.50;;;24.77;33.41
4410;BME280;2218;51.408;7.208;2023-06-14T08:06:58;99862.53;;;24.88;33.45
4410;BME280;2218;51.408;7.208;2023-06-14T08:09:27;99858.72;;;24.91;33.59
4410;BME280;2218;51.408;7.208;2023-06-14T08:11:54;99873.84;;;24.90;33.50
4410;BME280;2218;51.408;7.208;2023-06-14T08:14:22;99875.25;;;24.94;33.72
4410;BME280;2218;51.408;7.208;2023-06-14T08:16:49;99868.41;;;25.01;33.70
4410;BME280;2218;51.408;7.208;2023-06-14T08:19:16;99863.63;;;25.05;33.47
4410;BME280;2218;51.408;7.208;2023-06-14T08:21:43;99865.66;;;25.13;33.47
4410;BME280;2218;51.408;7.208;2023-06-14T08:24:11;99854.44;;;25.19;33.28
4410;BME280;2218;51.408;7.208;2023-06-14T08:26:41;99866.06;;;25.18;32.96
4410;BME280;2218;51.408;7.208;2023-06-14T08:29:08;99862.41;;;25.19;33.00
4410;BME280;2218;51.408;7.208;2023-06-14T08:31:35;99860.44;;;25.21;33.29
4410;BME280;2218;51.408;7.208;2023-06-14T08:34:02;99867.72;;;25.19;32.87
4410;BME280;2218;51.408;7.208;2023-06-14T08:36:29;99868.16;;;25.24;33.25
4410;BME280;2218;51.408;7.208;2023-06-14T08:38:56;99870.38;;;25.29;32.74
4410;BME280;2218;51.408;7.208;2023-06-14T08:41:23;99876.41;;;25.31;33.00
4410;BME280;2218;51.408;7.208;2023-06-14T08:43:52;99863.81;;;25.23;32.64
4410;BME280;2218;51.408;7.208;2023-06-14T08:46:19;99870.13;;;25.22;32.68
4410;BME280;2218;51.408;7.208;2023-06-14T08:48:48;99865.22;;;25.08;32.19
4410;BME280;2218;51.408;7.208;2023-06-14T08:51:18;99869.72;;;25.07;32.39
4410;BME280;2218;51.408;7.208;2023-06-14T08:53:53;99864.47;;;25.06;32.31
4410;BME280;2218;51.408;7.208;2023-06-14T08:56:26;99867.44;;;25.02;32.32
4410;BME280;2218;51.408;7.208;2023-06-14T08:58:55;99869.09;;;25.04;31.87
4410;BME280;2218;51.408;7.208;2023-06-14T09:01:23;99861.44;;;25.10;31.87
4410;BME280;2218;51.408;7.208;2023-06-14T09:03:51;99865.47;;;25.05;31.56
4410;BME280;2218;51.408;7.208;2023-06-14T09:06:21;99867.69;;;24.99;31.73
4410;BME280;2218;51.408;7.208;2023-06-14T09:08:49;99857.22;;;24.98;31.74
4410;BME280;2218;51.408;7.208;2023-06-14T09:11:18;99868.00;;;24.96;31.42
4410;BME280;2218;51.408;7.208;2023-06-14T09:13:45;99858.75;;;25.00;31.02
4410;BME280;2218;51.408;7.208;2023-06-14T09:16:15;99870.50;;;24.29;31.84
4410;BME280;2218;51.408;7.208;2023-06-14T09:18:44;99874.91;;;24.49;31.90
4410;BME280;2218;51.408;7.208;2023-06-14T09:21:14;99869.31;;;24.42;31.81
4410;BME280;2218;51.408;7.208;2023-06-14T09:23:43;99881.97;;;24.89;31.36
4410;BME280;2218;51.408;7.208;2023-06-14T09:26:13;99864.06;;;25.00;30.92
4410;BME280;2218;51.408;7.208;2023-06-14T09:28:45;99860.91;;;24.37;31.41
4410;BME280;2218;51.408;7.208;2023-06-14T09:31:16;99872.03;;;24.31;31.42
4410;BME280;2218;51.408;7.208;2023-06-14T09:33:44;99885.53;;;24.49;31.47
4410;BME280;2218;51.408;7.208;2023-06-14T09:36:16;99884.34;;;24.02;31.63
4410;BME280;2218;51.408;7.208;2023-06-14T09:38:52;99877.63;;;24.28;31.50
4410;BME280;2218;51.408;7.208;2023-06-14T09:41:19;99872.09;;;24.50;31.02
4410;BME280;2218;51.408;7.208;2023-06-14T09:43:47;99874.75;;;24.50;30.72
4410;BME280;2218;51.408;7.208;2023-06-14T09:46:17;99868.34;;;24.53;30.85
4410;BME280;2218;51.408;7.208;2023-06-14T09:48:45;99868.22;;;24.55;30.97
4410;BME280;2218;51.408;7.208;2023-06-14T09:51:15;99884.72;;;24.58;31.36
4410;BME280;2218;51.408;7.208;2023-06-14T09:53:46;99879.84;;;24.73;31.01
4410;BME280;2218;51.408;7.208;2023-06-14T09:56:14;99879.31;;;24.79;31.31
4410;BME280;2218;51.408;7.208;2023-06-14T09:58:45;99878.06;;;24.83;31.50
4410;BME280;2218;51.408;7.208;2023-06-14T10:01:13;99878.06;;;24.83;31.48
4410;BME280;2218;51.408;7.208;2023-06-14T10:03:43;99881.69;;;24.82;31.59
4410;BME280;2218;51.408;7.208;2023-06-14T10:06:11;99886.72;;;24.85;31.94
4410;BME280;2218;51.408;7.208;2023-06-14T10:08:39;99879.16;;;24.81;32.39
4410;BME280;2218;51.408;7.208;2023-06-14T10:11:07;99880.69;;;24.73;32.41
4410;BME280;2218;51.408;7.208;2023-06-14T10:13:35;99874.66;;;24.81;32.16
4410;BME280;2218;51.408;7.208;2023-06-14T10:16:10;99890.19;;;24.76;32.39
4410;BME280;2218;51.408;7.208;2023-06-14T10:18:50;99880.56;;;24.75;32.59
4410;BME280;2218;51.408;7.208;2023-06-14T10:21:32;99883.94;;;24.77;32.70
4410;BME280;2218;51.408;7.208;2023-06-14T10:24:07;99883.38;;;24.83;32.87
4410;BME280;2218;51.408;7.208;2023-06-14T10:26:51;99887.53;;;24.76;32.86
4410;BME280;2218;51.408;7.208;2023-06-14T10:29:18;99874.25;;;24.76;32.66
4410;BME280;2218;51.408;7.208;2023-06-14T10:31:47;99874.53;;;24.73;33.13
4410;BME280;2218;51.408;7.208;2023-06-14T10:37:03;99867.44;;;24.33;33.82
4410;BME280;2218;51.408;7.208;2023-06-14T10:39:32;99865.41;;;24.56;33.65
4410;BME280;2218;51.408;7.208;2023-06-14T10:42:01;99869.38;;;24.71;33.40
4410;BME280;2218;51.408;7.208;2023-06-14T10:44:42;99860.44;;;24.82;33.41
4410;BME280;2218;51.408;7.208;2023-06-14T10:47:26;99859.03;;;24.88;33.53
4410;BME280;2218;51.408;7.208;2023-06-14T10:50:02;99869.09;;;24.94;33.71
4410;BME280;2218;51.408;7.208;2023-06-14T10:52:34;99872.31;;;24.97;33.35
4410;BME280;2218;51.408;7.208;2023-06-14T10:55:07;99868.53;;;25.00;33.59
4410;BME280;2218;51.408;7.208;2023-06-14T10:57:40;99855.97;;;25.02;33.66
4410;BME280;2218;51.408;7.208;2023-06-14T11:00:10;99860.13;;;25.05;33.32
4410;BME280;2218;51.408;7.208;2023-06-14T11:05:57;99860.88;;;25.07;33.61
4410;BME280;2218;51.408;7.208;2023-06-14T11:08:56;99862.41;;;25.09;33.71
4410;BME280;2218;51.408;7.208;2023-06-14T11:11:32;99865.78;;;25.11;33.69
4410;BME280;2218;51.408;7.208;2023-06-14T11:14:01;99874.47;;;25.13;33.55
4410;BME280;2218;51.408;7.208;2023-06-14T11:16:28;99869.97;;;25.14;33.55
4410;BME280;2218;51.408;7.208;2023-06-14T11:18:57;99861.00;;;25.15;33.55
4410;BME280;2218;51.408;7.208;2023-06-14T11:21:26;99870.66;;;25.16;33.40
4410;BME280;2218;51.408;7.208;2023-06-14T11:23:57;99857.38;;;25.16;33.64
4410;BME280;2218;51.408;7.208;2023-06-14T11:26:29;99859.06;;;25.17;33.45
4410;BME280;2218;51.408;7.208;2023-06-14T11:28:57;99862.69;;;25.16;33.53
4410;BME280;2218;51.408;7.208;2023-06-14T11:31:24;99867.72;;;25.19;33.50
4410;BME280;2218;51.408;7.208;2023-06-14T11:33:54;99863.09;;;25.21;33.44
4410;BME280;2218;51.408;7.208;2023-06-14T11:36:22;99865.75;;;25.21;33.53
4410;BME280;2218;51.408;7.208;2023-06-14T11:38:58;99871.06;;;25.21;33.44
4410;BME280;2218;51.408;7.208;2023-06-14T11:41:32;99869.28;;;25.21;33.30
4410;BME280;2218;51.408;7.208;2023-06-14T11:44:01;99855.13;;;25.21;33.31
4410;BME280;2218;51.408;7.208;2023-06-14T11:46:28;99847.03;;;25.22;33.14
4410;BME280;2218;51.408;7.208;2023-06-14T11:48:55;99853.19;;;25.23;33.19
4410;BME280;2218;51.408;7.208;2023-06-14T11:51:22;99857.34;;;25.25;33.58
4410;BME280;2218;51.408;7.208;2023-06-14T11:53:50;99860.72;;;25.27;33.53
4410;BME280;2218;51.408;7.208;2023-06-14T11:56:18;99854.28;;;25.30;33.78
4410;BME280;2218;51.408;7.208;2023-06-14T11:58:46;99864.78;;;25.32;33.76
4410;BME280;2218;51.408;7.208;2023-06-14T12:01:16;99867.31;;;25.33;34.13
4410;BME280;2218;51.408;7.208;2023-06-14T12:03:48;99850.34;;;25.34;33.74
4410;BME280;2218;51.408;7.208;2023-06-14T12:06:15;99853.00;;;25.34;33.81
4410;BME280;2218;51.408;7.208;2023-06-14T12:08:43;99867.03;;;25.36;33.64
4410;BME280;2218;51.408;7.208;2023-06-14T12:11:14;99865.22;;;25.37;33.29
4410;BME280;2218;51.408;7.208;2023-06-14T12:13:42;99869.81;;;25.35;33.06
4410;BME280;2218;51.408;7.208;2023-06-14T12:16:10;99853.16;;;25.33;33.07
4410;BME280;2218;51.408;7.208;2023-06-14T12:18:40;99855.00;;;25.32;33.04
4410;BME280;2218;51.408;7.208;2023-06-14T12:21:09;99854.00;;;25.33;32.47
4410;BME280;2218;51.408;7.208;2023-06-14T12:23:44;99840.56;;;25.35;32.96
4410;BME280;2218;51.408;7.208;2023-06-14T12:26:18;99844.06;;;25.35;32.97
4410;BME280;2218;51.408;7.208;2023-06-14T12:28:47;99843.94;;;25.37;33.01
4410;BME280;2218;51.408;7.208;2023-06-14T12:31:15;99846.44;;;25.38;33.16
4410;BME280;2218;51.408;7.208;2023-06-14T12:33:44;99850.09;;;25.37;33.07
4410;BME280;2218;51.408;7.208;2023-06-14T12:36:14;99850.91;;;25.38;33.09
4410;BME280;2218;51.408;7.208;2023-06-14T12:38:42;99858.75;;;25.39;32.67
4410;BME280;2218;51.408;7.208;2023-06-14T12:41:11;99849.78;;;25.40;33.21
4410;BME280;2218;51.408;7.208;2023-06-14T12:43:42;99856.81;;;25.41;33.39
4410;BME280;2218;51.408;7.208;2023-06-14T12:46:09;99854.25;;;25.40;33.10
4410;BME280;2218;51.408;7.208;2023-06-14T12:48:35;99855.09;;;25.40;33.04
4410;BME280;2218;51.408;7.208;2023-06-14T12:51:02;99844.47;;;25.40;33.13
4410;BME280;2218;51.408;7.208;2023-06-14T12:53:29;99841.78;;;25.40;32.87
4410;BME280;2218;51.408;7.208;2023-06-14T12:55:56;99842.63;;;25.41;33.16
4410;BME280;2218;51.408;7.208;2023-06-14T12:58:23;99849.66;;;25.42;33.07
4410;BME280;2218;51.408;7.208;2023-06-14T13:00:52;99852.31;;;25.42;33.06
4410;BME280;2218;51.408;7.208;2023-06-14T13:03:19;99854.81;;;25.43;33.05
4410;BME280;2218;51.408;7.208;2023-06-14T13:05:46;99853.84;;;25.44;33.08
4410;BME280;2218;51.408;7.208;2023-06-14T13:08:13;99856.50;;;25.44;32.82
4410;BME280;2218;51.408;7.208;2023-06-14T13:10:40;99863.50;;;25.45;33.03
4410;BME280;2218;51.408;7.208;2023-06-14T13:13:07;99854.56;;;25.46;32.97
4410;BME280;2218;51.408;7.208;2023-06-14T13:15:34;99859.16;;;25.44;32.98
4410;BME280;2218;51.408;7.208;2023-06-14T13:18:02;99852.84;;;25.45;32.83
4410;BME280;2218;51.408;7.208;2023-06-14T13:20:29;99858.88;;;25.47;32.96
4410;BME280;2218;51.408;7.208;2023-06-14T13:22:57;99852.56;;;25.48;33.58
4410;BME280;2218;51.408;7.208;2023-06-14T13:25:24;99851.59;;;25.49;33.33
4410;BME280;2218;51.408;7.208;2023-06-14T13:27:51;99846.16;;;25.51;33.34
4410;BME280;2218;51.408;7.208;2023-06-14T13:30:18;99846.97;;;25.51;33.42
4410;BME280;2218;51.408;7.208;2023-06-14T13:32:45;99843.34;;;25.52;33.64
4410;BME280;2218;51.408;7.208;2023-06-14T13:35:13;99850.47;;;25.52;33.43
4410;BME280;2218;51.408;7.208;2023-06-14T13:37:40;99853.97;;;25.52;33.56